sensor_id;sensor_type;location;lat;lon;timestamp;temperature;humidity
46784;DHT22;32544;52.832;13.816;2023-09-19T00:00:30;26.10;54.20
46784;DHT22;32544;52.832;13.816;2023-09-19T00:01:30;26.10;54.30
46784;DHT22;32544;52.832;13.816;2023-09-19T00:02:32;26.10;54.30
46784;DHT22;32544;52.832;13.816;2023-09-19T00:03:33;26.10;54.30
46784;DHT22;32544;52.832;13.816;2023-09-19T00:04:33;26.10;54.30
46784;DHT22;32544;52.832;13.816;2023-09-19T00:05:36;26.10;54.30
46784;DHT22;32544;52.832;13.816;2023-09-19T00:06:36;26.10;54.30
46784;DHT22;32544;52.832;13.816;2023-09-19T00:07:37;26.10;54.30
46784;DHT22;32544;52.832;13.816;2023-09-19T00:08:38;26.10;54.20
46784;DHT22;32544;52.832;13.816;2023-09-19T00:09:38;26.10;54.20
46784;DHT22;32544;52.832;13.816;2023-09-19T00:10:39;26.10;54.30
46784;DHT22;32544;52.832;13.816;2023-09-19T00:11:41;26.10;54.20
46784;DHT22;32544;52.832;13.816;2023-09-19T00:12:44;26.10;54.20
46784;DHT22;32544;52.832;13.816;2023-09-19T00:13:47;26.10;54.20
46784;DHT22;32544;52.832;13.816;2023-09-19T00:14:50;26.10;54.20
46784;DHT22;32544;52.832;13.816;2023-09-19T00:15:51;26.10;54.20
46784;DHT22;32544;52.832;13.816;2023-09-19T00:16:52;26.10;54.20
46784;DHT22;32544;52.832;13.816;2023-09-19T00:17:55;26.10;54.20
46784;DHT22;32544;52.832;13.816;2023-09-19T00:18:55;26.10;54.20
46784;DHT22;32544;52.832;13.816;2023-09-19T00:19:56;26.10;54.30
46784;DHT22;32544;52.832;13.816;2023-09-19T00:20:57;26.10;54.30
46784;DHT22;32544;52.832;13.816;2023-09-19T00:21:57;26.10;54.30
46784;DHT22;32544;52.832;13.816;2023-09-19T00:22:58;26.10;54.20
46784;DHT22;32544;52.832;13.816;2023-09-19T00:23:59;26.10;54.10
46784;DHT22;32544;52.832;13.816;2023-09-19T00:25:00;26.10;54.20
46784;DHT22;32544;52.832;13.816;2023-09-19T00:26:01;26.10;54.30
46784;DHT22;32544;52.832;13.816;2023-09-19T00:27:01;26.10;55.00
46784;DHT22;32544;52.832;13.816;2023-09-19T00:28:03;26.10;54.30
46784;DHT22;32544;52.832;13.816;2023-09-19T00:29:04;26.10;54.30
46784;DHT22;32544;52.832;13.816;2023-09-19T00:30:05;26.00;54.20
46784;DHT22;32544;52.832;13.816;2023-09-19T00:31:07;26.00;54.20
46784;DHT22;32544;52.832;13.816;2023-09-19T00:32:09;26.00;54.20
46784;DHT22;32544;52.832;13.816;2023-09-19T00:33:09;26.10;54.30
46784;DHT22;32544;52.832;13.816;2023-09-19T00:34:11;26.00;54.20
46784;DHT22;32544;52.832;13.816;2023-09-19T00:35:12;26.10;54.20
46784;DHT22;32544;52.832;13.816;2023-09-19T00:36:13;26.10;54.20
46784;DHT22;32544;52.832;13.816;2023-09-19T00:37:14;26.10;54.20
46784;DHT22;32544;52.832;13.816;2023-09-19T00:38:14;26.10;54.20
46784;DHT22;32544;52.832;13.816;2023-09-19T00:39:20;26.10;54.30
46784;DHT22;32544;52.832;13.816;2023-09-19T00:40:20;26.10;54.20
46784;DHT22;32544;52.832;13.816;2023-09-19T00:41:21;26.10;54.20
46784;DHT22;32544;52.832;13.816;2023-09-19T00:42:22;26.10;54.20
46784;DHT22;32544;52.832;13.816;2023-09-19T00:43:23;26.10;54.20
46784;DHT22;32544;52.832;13.816;2023-09-19T00:44:24;26.10;54.20
46784;DHT22;32544;52.832;13.816;2023-09-19T00:45:25;26.10;54.30
46784;DHT22;32544;52.832;13.816;2023-09-19T00:46:25;26.00;54.20
46784;DHT22;32544;52.832;13.816;2023-09-19T00:47:27;26.00;54.20
46784;DHT22;32544;52.832;13.816;2023-09-19T00:48:28;26.00;54.20
46784;DHT22;32544;52.832;13.816;2023-09-19T00:49:29;26.00;54.20
46784;DHT22;32544;52.832;13.816;2023-09-19T00:50:32;26.00;54.20
46784;DHT22;32544;52.832;13.816;2023-09-19T00:51:33;26.10;54.30
46784;DHT22;32544;52.832;13.816;2023-09-19T00:52:37;26.10;54.30
46784;DHT22;32544;52.832;13.816;2023-09-19T00:53:38;26.00;54.20
46784;DHT22;32544;52.832;13.816;2023-09-19T00:54:39;26.00;54.20
46784;DHT22;32544;52.832;13.816;2023-09-19T00:55:40;26.00;54.30
46784;DHT22;32544;52.832;13.816;2023-09-19T00:56:45;26.00;54.30
46784;DHT22;32544;52.832;13.816;2023-09-19T00:57:46;26.00;54.20
46784;DHT22;32544;52.832;13.816;2023-09-19T00:58:47;26.00;54.20
46784;DHT22;32544;52.832;13.816;2023-09-19T00:59:48;26.00;54.20
46784;DHT22;32544;52.832;13.816;2023-09-19T01:00:49;26.10;54.30
46784;DHT22;32544;52.832;13.816;2023-09-19T01:01:50;26.10;54.30
46784;DHT22;32544;52.832;13.816;2023-09-19T01:02:54;26.10;54.30
46784;DHT22;32544;52.832;13.816;2023-09-19T01:03:55;26.00;54.20
46784;DHT22;32544;52.832;13.816;2023-09-19T01:04:55;26.00;54.20
46784;DHT22;32544;52.832;13.816;2023-09-19T01:05:56;26.00;54.20
46784;DHT22;32544;52.832;13.816;2023-09-19T01:06:56;26.00;54.20
46784;DHT22;32544;52.832;13.816;2023-09-19T01:07:58;26.00;54.20
46784;DHT22;32544;52.832;13.816;2023-09-19T01:08:59;26.00;54.20
46784;DHT22;32544;52.832;13.816;2023-09-19T01:10:00;26.00;54.30
46784;DHT22;32544;52.832;13.816;2023-09-19T01:12:09;25.90;54.30
46784;DHT22;32544;52.832;13.816;2023-09-19T01:13:15;25.90;54.30
46784;DHT22;32544;52.832;13.816;2023-09-19T01:14:29;25.90;54.30
46784;DHT22;32544;52.832;13.816;2023-09-19T01:15:44;26.00;54.30
46784;DHT22;32544;52.832;13.816;2023-09-19T01:17:00;25.90;54.30
46784;DHT22;32544;52.832;13.816;2023-09-19T01:19:24;25.90;54.30
46784;DHT22;32544;52.832;13.816;2023-09-19T01:23:15;25.90;54.30
46784;DHT22;32544;52.832;13.816;2023-09-19T01:30:43;25.90;54.30
46784;DHT22;32544;52.832;13.816;2023-09-19T01:31:44;25.90;54.30
46784;DHT22;32544;52.832;13.816;2023-09-19T01:32:45;25.90;54.30
46784;DHT22;32544;52.832;13.816;2023-09-19T01:33:57;25.90;54.30
46784;DHT22;32544;52.832;13.816;2023-09-19T01:34:57;25.80;54.30
46784;DHT22;32544;52.832;13.816;2023-09-19T01:36:04;25.80;54.40
46784;DHT22;32544;52.832;13.816;2023-09-19T01:37:05;25.80;54.30
46784;DHT22;32544;52.832;13.816;2023-09-19T01:38:06;25.90;54.40
46784;DHT22;32544;52.832;13.816;2023-09-19T01:39:10;25.80;54.30
46784;DHT22;32544;52.832;13.816;2023-09-19T01:40:14;25.80;54.30
46784;DHT22;32544;52.832;13.816;2023-09-19T01:41:17;25.90;54.30
46784;DHT22;32544;52.832;13.816;2023-09-19T01:42:37;26.00;54.20
46784;DHT22;32544;52.832;13.816;2023-09-19T01:43:42;25.90;54.20
46784;DHT22;32544;52.832;13.816;2023-09-19T01:45:47;25.90;54.30
46784;DHT22;32544;52.832;13.816;2023-09-19T01:46:50;25.90;54.30
46784;DHT22;32544;52.832;13.816;2023-09-19T01:47:52;25.90;54.30
46784;DHT22;32544;52.832;13.816;2023-09-19T01:49:04;25.80;54.20
46784;DHT22;32544;52.832;13.816;2023-09-19T01:51:25;25.90;54.90
46784;DHT22;32544;52.832;13.816;2023-09-19T01:52:30;25.90;54.30
46784;DHT22;32544;52.832;13.816;2023-09-19T01:53:33;25.90;54.20
46784;DHT22;32544;52.832;13.816;2023-09-19T01:55:09;25.80;54.20
46784;DHT22;32544;52.832;13.816;2023-09-19T01:56:06;25.90;54.30
46784;DHT22;32544;52.832;13.816;2023-09-19T01:57:16;25.90;54.20
46784;DHT22;32544;52.832;13.816;2023-09-19T01:58:20;25.90;54.20
46784;DHT22;32544;52.832;13.816;2023-09-19T01:59:25;25.90;54.20
46784;DHT22;32544;52.832;13.816;2023-09-19T02:00:28;25.90;54.20
46784;DHT22;32544;52.832;13.816;2023-09-19T02:01:30;25.90;54.20
46784;DHT22;32544;52.832;13.816;2023-09-19T02:02:35;25.80;54.20
46784;DHT22;32544;52.832;13.816;2023-09-19T02:03:36;25.80;54.20
46784;DHT22;32544;52.832;13.816;2023-09-19T02:04:38;25.80;54.20
46784;DHT22;32544;52.832;13.816;2023-09-19T02:05:39;25.90;54.20
46784;DHT22;32544;52.832;13.816;2023-09-19T02:06:40;25.80;54.20
46784;DHT22;32544;52.832;13.816;2023-09-19T02:07:41;25.80;54.20
46784;DHT22;32544;52.832;13.816;2023-09-19T02:08:41;25.80;54.20
46784;DHT22;32544;52.832;13.816;2023-09-19T02:09:42;25.80;54.10
46784;DHT22;32544;52.832;13.816;2023-09-19T02:10:43;25.90;54.20
46784;DHT22;32544;52.832;13.816;2023-09-19T02:11:47;25.90;54.20
46784;DHT22;32544;52.832;13.816;2023-09-19T02:12:49;25.80;54.10
46784;DHT22;32544;52.832;13.816;2023-09-19T02:13:50;25.80;54.10
46784;DHT22;32544;52.832;13.816;2023-09-19T02:14:54;25.80;54.80
46784;DHT22;32544;52.832;13.816;2023-09-19T02:15:57;25.80;54.10
46784;DHT22;32544;52.832;13.816;2023-09-19T02:16:58;25.80;54.00
46784;DHT22;32544;52.832;13.816;2023-09-19T02:17:59;25.90;54.10
46784;DHT22;32544;52.832;13.816;2023-09-19T02:19:00;25.80;54.10
46784;DHT22;32544;52.832;13.816;2023-09-19T02:20:05;25.80;54.10
46784;DHT22;32544;52.832;13.816;2023-09-19T02:21:10;25.90;54.00
46784;DHT22;32544;52.832;13.816;2023-09-19T02:22:12;25.90;54.10
46784;DHT22;32544;52.832;13.816;2023-09-19T02:23:14;25.90;54.00
46784;DHT22;32544;52.832;13.816;2023-09-19T02:24:16;25.90;54.00
46784;DHT22;32544;52.832;13.816;2023-09-19T02:25:16;25.90;54.00
46784;DHT22;32544;52.832;13.816;2023-09-19T02:26:17;25.80;53.90
46784;DHT22;32544;52.832;13.816;2023-09-19T02:27:19;25.90;54.00
46784;DHT22;32544;52.832;13.816;2023-09-19T02:28:20;25.90;54.00
46784;DHT22;32544;52.832;13.816;2023-09-19T02:29:20;25.80;53.90
46784;DHT22;32544;52.832;13.816;2023-09-19T02:30:22;25.80;54.00
46784;DHT22;32544;52.832;13.816;2023-09-19T02:31:23;25.80;53.90
46784;DHT22;32544;52.832;13.816;2023-09-19T02:32:24;25.80;54.00
46784;DHT22;32544;52.832;13.816;2023-09-19T02:33:24;25.80;53.90
46784;DHT22;32544;52.832;13.816;2023-09-19T02:34:27;25.90;54.00
46784;DHT22;32544;52.832;13.816;2023-09-19T02:35:28;25.90;54.00
46784;DHT22;32544;52.832;13.816;2023-09-19T02:36:33;25.90;54.00
46784;DHT22;32544;52.832;13.816;2023-09-19T02:37:33;25.90;54.00
46784;DHT22;32544;52.832;13.816;2023-09-19T02:38:35;25.80;53.90
46784;DHT22;32544;52.832;13.816;2023-09-19T02:39:37;25.80;53.90
46784;DHT22;32544;52.832;13.816;2023-09-19T02:40:38;25.90;54.00
46784;DHT22;32544;52.832;13.816;2023-09-19T02:41:41;25.90;54.00
46784;DHT22;32544;52.832;13.816;2023-09-19T02:42:48;25.80;53.90
46784;DHT22;32544;52.832;13.816;2023-09-19T02:43:50;25.80;53.90
46784;DHT22;32544;52.832;13.816;2023-09-19T02:44:50;25.80;53.90
46784;DHT22;32544;52.832;13.816;2023-09-19T02:45:51;25.90;54.00
46784;DHT22;32544;52.832;13.816;2023-09-19T02:46:54;25.80;53.90
46784;DHT22;32544;52.832;13.816;2023-09-19T02:47:56;25.80;53.90
46784;DHT22;32544;52.832;13.816;2023-09-19T02:48:57;25.80;53.90
46784;DHT22;32544;52.832;13.816;2023-09-19T02:49:58;25.90;54.00
46784;DHT22;32544;52.832;13.816;2023-09-19T02:50:59;25.80;53.90
46784;DHT22;32544;52.832;13.816;2023-09-19T02:51:59;25.80;53.90
46784;DHT22;32544;52.832;13.816;2023-09-19T02:53:00;25.90;53.90
46784;DHT22;32544;52.832;13.816;2023-09-19T02:54:01;25.80;53.90
46784;DHT22;32544;52.832;13.816;2023-09-19T02:55:04;25.80;53.80
46784;DHT22;32544;52.832;13.816;2023-09-19T02:56:06;25.80;53.90
46784;DHT22;32544;52.832;13.816;2023-09-19T02:57:07;25.80;53.90
46784;DHT22;32544;52.832;13.816;2023-09-19T02:58:08;25.80;53.90
46784;DHT22;32544;52.832;13.816;2023-09-19T02:59:11;25.80;53.90
46784;DHT22;32544;52.832;13.816;2023-09-19T03:00:12;25.80;53.90
46784;DHT22;32544;52.832;13.816;2023-09-19T03:01:13;25.80;53.90
46784;DHT22;32544;52.832;13.816;2023-09-19T03:02:15;25.80;53.90
46784;DHT22;32544;52.832;13.816;2023-09-19T03:03:16;25.80;53.90
46784;DHT22;32544;52.832;13.816;2023-09-19T03:04:17;25.80;53.90
46784;DHT22;32544;52.832;13.816;2023-09-19T03:05:21;25.80;53.90
46784;DHT22;32544;52.832;13.816;2023-09-19T03:06:21;25.80;53.90
46784;DHT22;32544;52.832;13.816;2023-09-19T03:07:24;25.80;53.90
46784;DHT22;32544;52.832;13.816;2023-09-19T03:08:25;25.80;53.90
46784;DHT22;32544;52.832;13.816;2023-09-19T03:09:26;25.80;53.90
46784;DHT22;32544;52.832;13.816;2023-09-19T03:10:27;25.80;53.90
46784;DHT22;32544;52.832;13.816;2023-09-19T03:11:28;25.80;53.90
46784;DHT22;32544;52.832;13.816;2023-09-19T03:12:31;25.80;53.90
46784;DHT22;32544;52.832;13.816;2023-09-19T03:13:34;25.80;53.90
46784;DHT22;32544;52.832;13.816;2023-09-19T03:14:37;25.80;53.90
46784;DHT22;32544;52.832;13.816;2023-09-19T03:15:41;25.80;53.90
46784;DHT22;32544;52.832;13.816;2023-09-19T03:16:41;25.80;53.90
46784;DHT22;32544;52.832;13.816;2023-09-19T03:17:44;25.80;53.90
46784;DHT22;32544;52.832;13.816;2023-09-19T03:18:45;25.80;53.90
46784;DHT22;32544;52.832;13.816;2023-09-19T03:19:47;25.80;53.90
46784;DHT22;32544;52.832;13.816;2023-09-19T03:20:55;25.80;53.90
46784;DHT22;32544;52.832;13.816;2023-09-19T03:21:56;25.80;53.80
46784;DHT22;32544;52.832;13.816;2023-09-19T03:22:58;25.80;53.90
46784;DHT22;32544;52.832;13.816;2023-09-19T03:24:01;25.80;53.90
46784;DHT22;32544;52.832;13.816;2023-09-19T03:25:03;25.80;53.90
46784;DHT22;32544;52.832;13.816;2023-09-19T03:26:08;25.80;53.90
46784;DHT22;32544;52.832;13.816;2023-09-19T03:27:10;25.80;53.90
46784;DHT22;32544;52.832;13.816;2023-09-19T03:28:11;25.80;53.90
46784;DHT22;32544;52.832;13.816;2023-09-19T03:29:12;25.80;53.90
46784;DHT22;32544;52.832;13.816;2023-09-19T03:30:14;25.80;53.90
46784;DHT22;32544;52.832;13.816;2023-09-19T03:31:16;25.80;53.90
46784;DHT22;32544;52.832;13.816;2023-09-19T03:32:16;25.80;53.90
46784;DHT22;32544;52.832;13.816;2023-09-19T03:33:17;25.70;54.00
46784;DHT22;32544;52.832;13.816;2023-09-19T03:34:18;25.70;53.80
46784;DHT22;32544;52.832;13.816;2023-09-19T03:35:20;25.80;53.90
46784;DHT22;32544;52.832;13.816;2023-09-19T03:36:21;25.70;53.80
46784;DHT22;32544;52.832;13.816;2023-09-19T03:37:23;25.70;53.90
46784;DHT22;32544;52.832;13.816;2023-09-19T03:38:24;25.70;53.80
46784;DHT22;32544;52.832;13.816;2023-09-19T03:39:24;25.70;53.80
46784;DHT22;32544;52.832;13.816;2023-09-19T03:40:25;25.80;53.80
46784;DHT22;32544;52.832;13.816;2023-09-19T03:41:26;25.80;53.80
46784;DHT22;32544;52.832;13.816;2023-09-19T03:42:27;25.80;53.80
46784;DHT22;32544;52.832;13.816;2023-09-19T03:43:28;25.80;53.80
46784;DHT22;32544;52.832;13.816;2023-09-19T03:44:29;25.80;53.90
46784;DHT22;32544;52.832;13.816;2023-09-19T03:45:30;25.70;54.00
46784;DHT22;32544;52.832;13.816;2023-09-19T03:46:31;25.70;53.90
46784;DHT22;32544;52.832;13.816;2023-09-19T03:47:32;25.70;53.90
46784;DHT22;32544;52.832;13.816;2023-09-19T03:48:35;25.70;54.00
46784;DHT22;32544;52.832;13.816;2023-09-19T03:49:36;25.70;54.00
46784;DHT22;32544;52.832;13.816;2023-09-19T03:50:37;25.70;53.90
46784;DHT22;32544;52.832;13.816;2023-09-19T03:51:38;25.60;53.90
46784;DHT22;32544;52.832;13.816;2023-09-19T03:52:41;25.60;53.90
46784;DHT22;32544;52.832;13.816;2023-09-19T03:53:42;25.60;53.90
46784;DHT22;32544;52.832;13.816;2023-09-19T03:54:44;25.70;53.90
46784;DHT22;32544;52.832;13.816;2023-09-19T03:55:46;25.60;53.80
46784;DHT22;32544;52.832;13.816;2023-09-19T03:56:47;25.70;53.90
46784;DHT22;32544;52.832;13.816;2023-09-19T03:57:48;25.60;53.80
46784;DHT22;32544;52.832;13.816;2023-09-19T03:58:49;25.60;53.80
46784;DHT22;32544;52.832;13.816;2023-09-19T03:59:50;25.60;53.80
46784;DHT22;32544;52.832;13.816;2023-09-19T04:00:56;25.60;53.90
46784;DHT22;32544;52.832;13.816;2023-09-19T04:01:58;25.60;53.90
46784;DHT22;32544;52.832;13.816;2023-09-19T04:02:59;25.60;53.90
46784;DHT22;32544;52.832;13.816;2023-09-19T04:04:02;25.60;53.90
46784;DHT22;32544;52.832;13.816;2023-09-19T04:05:09;25.60;53.90
46784;DHT22;32544;52.832;13.816;2023-09-19T04:06:11;25.60;53.90
46784;DHT22;32544;52.832;13.816;2023-09-19T04:07:12;25.60;53.80
46784;DHT22;32544;52.832;13.816;2023-09-19T04:08:13;25.60;53.80
46784;DHT22;32544;52.832;13.816;2023-09-19T04:09:15;25.60;53.80
46784;DHT22;32544;52.832;13.816;2023-09-19T04:10:15;25.60;53.80
46784;DHT22;32544;52.832;13.816;2023-09-19T04:11:16;25.60;53.80
46784;DHT22;32544;52.832;13.816;2023-09-19T04:12:16;25.60;53.80
46784;DHT22;32544;52.832;13.816;2023-09-19T04:13:17;25.60;53.70
46784;DHT22;32544;52.832;13.816;2023-09-19T04:14:17;25.60;53.70
46784;DHT22;32544;52.832;13.816;2023-09-19T04:15:18;25.60;53.70
46784;DHT22;32544;52.832;13.816;2023-09-19T04:16:19;25.60;53.70
46784;DHT22;32544;52.832;13.816;2023-09-19T04:17:20;25.60;53.60
46784;DHT22;32544;52.832;13.816;2023-09-19T04:18:20;25.60;53.60
46784;DHT22;32544;52.832;13.816;2023-09-19T04:19:23;25.60;53.60
46784;DHT22;32544;52.832;13.816;2023-09-19T04:20:24;25.60;53.60
46784;DHT22;32544;52.832;13.816;2023-09-19T04:21:24;25.60;53.50
46784;DHT22;32544;52.832;13.816;2023-09-19T04:22:25;25.60;53.50
46784;DHT22;32544;52.832;13.816;2023-09-19T04:23:26;25.60;53.50
46784;DHT22;32544;52.832;13.816;2023-09-19T04:24:27;25.50;53.50
46784;DHT22;32544;52.832;13.816;2023-09-19T04:25:28;25.60;53.50
46784;DHT22;32544;52.832;13.816;2023-09-19T04:26:29;25.60;53.50
46784;DHT22;32544;52.832;13.816;2023-09-19T04:27:31;25.60;53.60
46784;DHT22;32544;52.832;13.816;2023-09-19T04:28:31;25.60;53.50
46784;DHT22;32544;52.832;13.816;2023-09-19T04:29:34;25.60;53.50
46784;DHT22;32544;52.832;13.816;2023-09-19T04:30:35;25.60;53.50
46784;DHT22;32544;52.832;13.816;2023-09-19T04:31:35;25.60;53.50
46784;DHT22;32544;52.832;13.816;2023-09-19T04:32:40;25.60;53.50
46784;DHT22;32544;52.832;13.816;2023-09-19T04:33:41;25.50;53.40
46784;DHT22;32544;52.832;13.816;2023-09-19T04:34:43;25.60;53.50
46784;DHT22;32544;52.832;13.816;2023-09-19T04:35:44;25.60;53.50
46784;DHT22;32544;52.832;13.816;2023-09-19T04:36:45;25.50;53.40
46784;DHT22;32544;52.832;13.816;2023-09-19T04:37:45;25.50;53.40
46784;DHT22;32544;52.832;13.816;2023-09-19T04:38:46;25.60;53.40
46784;DHT22;32544;52.832;13.816;2023-09-19T04:39:47;25.50;53.30
46784;DHT22;32544;52.832;13.816;2023-09-19T04:40:48;25.50;53.30
46784;DHT22;32544;52.832;13.816;2023-09-19T04:41:49;25.50;53.20
46784;DHT22;32544;52.832;13.816;2023-09-19T04:42:56;25.50;53.30
46784;DHT22;32544;52.832;13.816;2023-09-19T04:43:57;25.50;53.30
46784;DHT22;32544;52.832;13.816;2023-09-19T04:44:57;25.50;53.30
46784;DHT22;32544;52.832;13.816;2023-09-19T04:46:00;25.50;53.20
46784;DHT22;32544;52.832;13.816;2023-09-19T04:47:00;25.50;53.20
46784;DHT22;32544;52.832;13.816;2023-09-19T04:48:01;25.50;53.20
46784;DHT22;32544;52.832;13.816;2023-09-19T04:49:03;25.50;53.20
46784;DHT22;32544;52.832;13.816;2023-09-19T04:50:04;25.50;53.10
46784;DHT22;32544;52.832;13.816;2023-09-19T04:51:04;25.50;53.10
46784;DHT22;32544;52.832;13.816;2023-09-19T04:52:05;25.50;53.10
46784;DHT22;32544;52.832;13.816;2023-09-19T04:53:06;25.50;53.10
46784;DHT22;32544;52.832;13.816;2023-09-19T04:54:07;25.50;53.10
46784;DHT22;32544;52.832;13.816;2023-09-19T04:55:09;25.60;52.90
46784;DHT22;32544;52.832;13.816;2023-09-19T04:56:10;25.50;53.00
46784;DHT22;32544;52.832;13.816;2023-09-19T04:57:10;25.50;53.00
46784;DHT22;32544;52.832;13.816;2023-09-19T04:58:11;25.40;52.90
46784;DHT22;32544;52.832;13.816;2023-09-19T04:59:11;25.40;52.90
46784;DHT22;32544;52.832;13.816;2023-09-19T05:00:12;25.40;53.00
46784;DHT22;32544;52.832;13.816;2023-09-19T05:01:15;25.40;53.00
46784;DHT22;32544;52.832;13.816;2023-09-19T05:02:16;25.40;52.90
46784;DHT22;32544;52.832;13.816;2023-09-19T05:03:16;25.40;52.80
46784;DHT22;32544;52.832;13.816;2023-09-19T05:04:17;25.40;52.90
46784;DHT22;32544;52.832;13.816;2023-09-19T05:05:18;25.40;52.70
46784;DHT22;32544;52.832;13.816;2023-09-19T05:06:19;25.50;52.80
46784;DHT22;32544;52.832;13.816;2023-09-19T05:07:22;25.50;52.80
46784;DHT22;32544;52.832;13.816;2023-09-19T05:08:23;25.40;52.60
46784;DHT22;32544;52.832;13.816;2023-09-19T05:09:24;25.50;52.60
46784;DHT22;32544;52.832;13.816;2023-09-19T05:10:25;25.50;52.50
46784;DHT22;32544;52.832;13.816;2023-09-19T05:11:25;25.40;52.30
46784;DHT22;32544;52.832;13.816;2023-09-19T05:12:26;25.40;52.40
46784;DHT22;32544;52.832;13.816;2023-09-19T05:13:27;25.40;52.40
46784;DHT22;32544;52.832;13.816;2023-09-19T05:14:28;25.40;52.40
46784;DHT22;32544;52.832;13.816;2023-09-19T05:15:30;25.40;52.40
46784;DHT22;32544;52.832;13.816;2023-09-19T05:16:31;25.40;52.20
46784;DHT22;32544;52.832;13.816;2023-09-19T05:17:32;25.40;52.30
46784;DHT22;32544;52.832;13.816;2023-09-19T05:18:33;25.40;52.30
46784;DHT22;32544;52.832;13.816;2023-09-19T05:19:33;25.40;52.30
46784;DHT22;32544;52.832;13.816;2023-09-19T05:20:35;25.40;52.30
46784;DHT22;32544;52.832;13.816;2023-09-19T05:21:38;25.40;52.40
46784;DHT22;32544;52.832;13.816;2023-09-19T05:22:42;25.50;52.00
46784;DHT22;32544;52.832;13.816;2023-09-19T05:23:43;25.50;52.10
46784;DHT22;32544;52.832;13.816;2023-09-19T05:24:44;25.40;52.00
46784;DHT22;32544;52.832;13.816;2023-09-19T05:25:47;25.50;52.20
46784;DHT22;32544;52.832;13.816;2023-09-19T05:26:49;25.60;51.90
46784;DHT22;32544;52.832;13.816;2023-09-19T05:27:49;25.50;51.90
46784;DHT22;32544;52.832;13.816;2023-09-19T05:28:53;25.50;51.90
46784;DHT22;32544;52.832;13.816;2023-09-19T05:29:53;25.50;51.90
46784;DHT22;32544;52.832;13.816;2023-09-19T05:30:56;25.50;51.90
46784;DHT22;32544;52.832;13.816;2023-09-19T05:31:56;25.50;51.80
46784;DHT22;32544;52.832;13.816;2023-09-19T05:32:57;25.40;51.90
46784;DHT22;32544;52.832;13.816;2023-09-19T05:33:58;25.40;51.70
46784;DHT22;32544;52.832;13.816;2023-09-19T05:35:01;25.40;51.90
46784;DHT22;32544;52.832;13.816;2023-09-19T05:36:02;25.40;52.00
46784;DHT22;32544;52.832;13.816;2023-09-19T05:37:03;25.40;51.90
46784;DHT22;32544;52.832;13.816;2023-09-19T05:38:03;25.40;51.90
46784;DHT22;32544;52.832;13.816;2023-09-19T05:39:06;25.50;51.90
46784;DHT22;32544;52.832;13.816;2023-09-19T05:40:09;25.40;51.70
46784;DHT22;32544;52.832;13.816;2023-09-19T05:41:12;25.40;51.80
46784;DHT22;32544;52.832;13.816;2023-09-19T05:42:14;25.40;51.80
46784;DHT22;32544;52.832;13.816;2023-09-19T05:43:14;25.40;51.80
46784;DHT22;32544;52.832;13.816;2023-09-19T05:44:15;25.40;52.00
46784;DHT22;32544;52.832;13.816;2023-09-19T05:45:15;25.40;51.70
46784;DHT22;32544;52.832;13.816;2023-09-19T05:46:19;25.40;51.80
46784;DHT22;32544;52.832;13.816;2023-09-19T05:47:20;25.40;51.80
46784;DHT22;32544;52.832;13.816;2023-09-19T05:48:22;25.40;51.90
46784;DHT22;32544;52.832;13.816;2023-09-19T05:49:23;25.40;52.00
46784;DHT22;32544;52.832;13.816;2023-09-19T05:50:25;25.60;51.70
46784;DHT22;32544;52.832;13.816;2023-09-19T05:51:25;25.60;51.50
46784;DHT22;32544;52.832;13.816;2023-09-19T05:52:28;25.50;51.40
46784;DHT22;32544;52.832;13.816;2023-09-19T05:53:30;25.50;51.50
46784;DHT22;32544;52.832;13.816;2023-09-19T05:54:30;25.40;51.60
46784;DHT22;32544;52.832;13.816;2023-09-19T05:55:31;25.40;51.60
46784;DHT22;32544;52.832;13.816;2023-09-19T05:56:32;25.50;51.60
46784;DHT22;32544;52.832;13.816;2023-09-19T05:57:35;25.50;51.60
46784;DHT22;32544;52.832;13.816;2023-09-19T05:58:36;25.40;51.50
46784;DHT22;32544;52.832;13.816;2023-09-19T05:59:36;25.40;51.40
46784;DHT22;32544;52.832;13.816;2023-09-19T06:00:37;25.40;51.50
46784;DHT22;32544;52.832;13.816;2023-09-19T06:01:38;25.40;51.50
46784;DHT22;32544;52.832;13.816;2023-09-19T06:02:38;25.30;51.50
46784;DHT22;32544;52.832;13.816;2023-09-19T06:03:40;25.40;51.50
46784;DHT22;32544;52.832;13.816;2023-09-19T06:04:41;25.30;51.50
46784;DHT22;32544;52.832;13.816;2023-09-19T06:05:41;25.40;51.60
46784;DHT22;32544;52.832;13.816;2023-09-19T06:06:42;25.40;51.40
46784;DHT22;32544;52.832;13.816;2023-09-19T06:07:42;25.40;51.50
46784;DHT22;32544;52.832;13.816;2023-09-19T06:08:43;25.30;51.30
46784;DHT22;32544;52.832;13.816;2023-09-19T06:09:45;25.30;51.30
46784;DHT22;32544;52.832;13.816;2023-09-19T06:10:46;25.30;51.40
46784;DHT22;32544;52.832;13.816;2023-09-19T06:11:47;25.30;51.50
46784;DHT22;32544;52.832;13.816;2023-09-19T06:12:47;25.30;51.40
46784;DHT22;32544;52.832;13.816;2023-09-19T06:13:48;25.30;51.50
46784;DHT22;32544;52.832;13.816;2023-09-19T06:14:49;25.30;51.30
46784;DHT22;32544;52.832;13.816;2023-09-19T06:15:49;25.30;51.40
46784;DHT22;32544;52.832;13.816;2023-09-19T06:16:50;25.30;51.40
46784;DHT22;32544;52.832;13.816;2023-09-19T06:17:51;25.30;51.40
46784;DHT22;32544;52.832;13.816;2023-09-19T06:18:55;25.30;51.40
46784;DHT22;32544;52.832;13.816;2023-09-19T06:19:56;25.30;51.20
46784;DHT22;32544;52.832;13.816;2023-09-19T06:20:56;25.20;51.30
46784;DHT22;32544;52.832;13.816;2023-09-19T06:21:57;25.20;51.30
46784;DHT22;32544;52.832;13.816;2023-09-19T06:22:59;25.30;51.20
46784;DHT22;32544;52.832;13.816;2023-09-19T06:24:02;25.30;51.20
46784;DHT22;32544;52.832;13.816;2023-09-19T06:25:03;25.20;51.10
46784;DHT22;32544;52.832;13.816;2023-09-19T06:26:04;25.20;51.10
46784;DHT22;32544;52.832;13.816;2023-09-19T06:27:07;25.20;51.20
46784;DHT22;32544;52.832;13.816;2023-09-19T06:28:09;25.40;51.30
46784;DHT22;32544;52.832;13.816;2023-09-19T06:29:13;25.40;50.90
46784;DHT22;32544;52.832;13.816;2023-09-19T06:30:14;25.30;50.80
46784;DHT22;32544;52.832;13.816;2023-09-19T06:31:15;25.30;50.90
46784;DHT22;32544;52.832;13.816;2023-09-19T06:32:16;25.30;50.90
46784;DHT22;32544;52.832;13.816;2023-09-19T06:33:16;25.30;51.40
46784;DHT22;32544;52.832;13.816;2023-09-19T06:34:18;25.30;50.90
46784;DHT22;32544;52.832;13.816;2023-09-19T06:35:19;25.30;50.90
46784;DHT22;32544;52.832;13.816;2023-09-19T06:36:20;25.40;51.00
46784;DHT22;32544;52.832;13.816;2023-09-19T06:37:21;25.40;51.30
46784;DHT22;32544;52.832;13.816;2023-09-19T06:38:22;25.40;50.70